sensor_id;sensor_type;location;lat;lon;timestamp;P1;durP1;ratioP1;P2;durP2;ratioP2
36931;SDS011;22847;42.654;23.370;2023-07-08T00:01:55;20.88;;;14.45;;
36931;SDS011;22847;42.654;23.370;2023-07-08T00:04:20;19.77;;;14.30;;
36931;SDS011;22847;42.654;23.370;2023-07-08T00:06:47;20.77;;;14.70;;
36931;SDS011;22847;42.654;23.370;2023-07-08T00:09:12;21.35;;;14.80;;
36931;SDS011;22847;42.654;23.370;2023-07-08T00:11:38;21.13;;;15.32;;
36931;SDS011;22847;42.654;23.370;2023-07-08T00:14:03;20.73;;;15.27;;
36931;SDS011;22847;42.654;23.370;2023-07-08T00:16:29;19.10;;;15.68;;
36931;SDS011;22847;42.654;23.370;2023-07-08T00:18:54;18.48;;;15.25;;
36931;SDS011;22847;42.654;23.370;2023-07-08T00:21:20;21.05;;;15.82;;
36931;SDS011;22847;42.654;23.370;2023-07-08T00:23:46;23.60;;;15.88;;
36931;SDS011;22847;42.654;23.370;2023-07-08T00:26:25;19.58;;;15.88;;
36931;SDS011;22847;42.654;23.370;2023-07-08T00:28:53;20.33;;;14.98;;
36931;SDS011;22847;42.654;23.370;2023-07-08T00:31:19;22.70;;;16.02;;
36931;SDS011;22847;42.654;23.370;2023-07-08T00:33:52;20.85;;;15.27;;
36931;SDS011;22847;42.654;23.370;2023-07-08T00:36:20;22.75;;;16.30;;
36931;SDS011;22847;42.654;23.370;2023-07-08T00:38:47;18.88;;;15.68;;
36931;SDS011;22847;42.654;23.370;2023-07-08T00:44:07;21.83;;;15.25;;
36931;SDS011;22847;42.654;23.370;2023-07-08T00:46:55;19.67;;;15.73;;
36931;SDS011;22847;42.654;23.370;2023-07-08T00:49:34;20.65;;;15.07;;
36931;SDS011;22847;42.654;23.370;2023-07-08T00:52:21;19.98;;;15.27;;
36931;SDS011;22847;42.654;23.370;2023-07-08T00:54:58;18.55;;;14.65;;
36931;SDS011;22847;42.654;23.370;2023-07-08T00:57:28;21.77;;;15.23;;
36931;SDS011;22847;42.654;23.370;2023-07-08T00:59:59;19.42;;;15.55;;
36931;SDS011;22847;42.654;23.370;2023-07-08T01:02:29;17.38;;;14.40;;
36931;SDS011;22847;42.654;23.370;2023-07-08T01:05:06;19.02;;;14.70;;
36931;SDS011;22847;42.654;23.370;2023-07-08T01:07:33;20.10;;;14.27;;
36931;SDS011;22847;42.654;23.370;2023-07-08T01:10:10;19.92;;;15.27;;
36931;SDS011;22847;42.654;23.370;2023-07-08T01:12:41;17.60;;;14.45;;
36931;SDS011;22847;42.654;23.370;2023-07-08T01:15:11;21.17;;;15.38;;
36931;SDS011;22847;42.654;23.370;2023-07-08T01:17:39;18.00;;;14.25;;
36931;SDS011;22847;42.654;23.370;2023-07-08T01:20:07;22.30;;;14.77;;
36931;SDS011;22847;42.654;23.370;2023-07-08T01:22:37;16.70;;;14.48;;
36931;SDS011;22847;42.654;23.370;2023-07-08T01:25:04;21.30;;;14.60;;
36931;SDS011;22847;42.654;23.370;2023-07-08T01:27:34;21.08;;;14.65;;
36931;SDS011;22847;42.654;23.370;2023-07-08T01:30:02;16.98;;;13.85;;
36931;SDS011;22847;42.654;23.370;2023-07-08T01:32:29;17.88;;;13.07;;
36931;SDS011;22847;42.654;23.370;2023-07-08T01:34:59;21.90;;;14.48;;
36931;SDS011;22847;42.654;23.370;2023-07-08T01:37:51;17.52;;;13.55;;
36931;SDS011;22847;42.654;23.370;2023-07-08T01:40:38;22.15;;;13.25;;
36931;SDS011;22847;42.654;23.370;2023-07-08T01:43:12;20.35;;;13.77;;
36931;SDS011;22847;42.654;23.370;2023-07-08T01:45:38;20.40;;;13.43;;
36931;SDS011;22847;42.654;23.370;2023-07-08T01:48:16;22.05;;;13.68;;
36931;SDS011;22847;42.654;23.370;2023-07-08T01:50:46;19.10;;;13.43;;
36931;SDS011;22847;42.654;23.370;2023-07-08T01:53:20;20.30;;;13.82;;
36931;SDS011;22847;42.654;23.370;2023-07-08T01:55:47;18.98;;;13.40;;
36931;SDS011;22847;42.654;23.370;2023-07-08T01:58:13;21.13;;;13.90;;
36931;SDS011;22847;42.654;23.370;2023-07-08T02:00:38;19.48;;;13.20;;
36931;SDS011;22847;42.654;23.370;2023-07-08T02:03:04;17.75;;;12.85;;
36931;SDS011;22847;42.654;23.370;2023-07-08T02:05:29;16.98;;;13.30;;
36931;SDS011;22847;42.654;23.370;2023-07-08T02:07:55;17.55;;;14.05;;
36931;SDS011;22847;42.654;23.370;2023-07-08T02:10:21;17.50;;;13.60;;
36931;SDS011;22847;42.654;23.370;2023-07-08T02:12:46;14.77;;;12.40;;
36931;SDS011;22847;42.654;23.370;2023-07-08T02:15:12;17.20;;;13.02;;
36931;SDS011;22847;42.654;23.370;2023-07-08T02:17:38;20.15;;;13.43;;
36931;SDS011;22847;42.654;23.370;2023-07-08T02:20:04;18.33;;;12.55;;
36931;SDS011;22847;42.654;23.370;2023-07-08T02:22:30;16.60;;;12.50;;
36931;SDS011;22847;42.654;23.370;2023-07-08T02:24:55;20.08;;;12.82;;
36931;SDS011;22847;42.654;23.370;2023-07-08T02:27:21;17.33;;;12.20;;
36931;SDS011;22847;42.654;23.370;2023-07-08T02:29:47;17.88;;;12.38;;
36931;SDS011;22847;42.654;23.370;2023-07-08T02:32:12;19.38;;;12.25;;
36931;SDS011;22847;42.654;23.370;2023-07-08T02:34:38;16.48;;;11.88;;
36931;SDS011;22847;42.654;23.370;2023-07-08T02:37:03;20.45;;;12.07;;
36931;SDS011;22847;42.654;23.370;2023-07-08T02:39:29;17.63;;;11.90;;
36931;SDS011;22847;42.654;23.370;2023-07-08T02:41:54;15.10;;;12.20;;
36931;SDS011;22847;42.654;23.370;2023-07-08T02:44:20;15.80;;;11.75;;
36931;SDS011;22847;42.654;23.370;2023-07-08T02:46:45;17.15;;;11.85;;
36931;SDS011;22847;42.654;23.370;2023-07-08T02:49:11;15.80;;;11.75;;
36931;SDS011;22847;42.654;23.370;2023-07-08T02:51:36;16.63;;;12.38;;
36931;SDS011;22847;42.654;23.370;2023-07-08T02:54:01;17.23;;;13.20;;
36931;SDS011;22847;42.654;23.370;2023-07-08T02:56:27;16.35;;;12.40;;
36931;SDS011;22847;42.654;23.370;2023-07-08T02:58:52;15.35;;;12.02;;
36931;SDS011;22847;42.654;23.370;2023-07-08T03:01:18;17.40;;;12.45;;
36931;SDS011;22847;42.654;23.370;2023-07-08T03:03:44;16.55;;;12.32;;
36931;SDS011;22847;42.654;23.370;2023-07-08T03:06:10;16.13;;;12.73;;
36931;SDS011;22847;42.654;23.370;2023-07-08T03:08:36;16.75;;;13.07;;
36931;SDS011;22847;42.654;23.370;2023-07-08T03:11:03;17.17;;;12.20;;
36931;SDS011;22847;42.654;23.370;2023-07-08T03:13:29;20.42;;;11.98;;
36931;SDS011;22847;42.654;23.370;2023-07-08T03:15:57;21.95;;;12.45;;
36931;SDS011;22847;42.654;23.370;2023-07-08T03:18:24;21.98;;;12.27;;
36931;SDS011;22847;42.654;23.370;2023-07-08T03:20:51;16.50;;;11.88;;
36931;SDS011;22847;42.654;23.370;2023-07-08T03:23:21;21.20;;;12.80;;
36931;SDS011;22847;42.654;23.370;2023-07-08T03:25:47;15.43;;;11.32;;
36931;SDS011;22847;42.654;23.370;2023-07-08T03:28:13;16.05;;;11.57;;
36931;SDS011;22847;42.654;23.370;2023-07-08T03:30:40;18.00;;;11.27;;
36931;SDS011;22847;42.654;23.370;2023-07-08T03:33:06;15.13;;;10.55;;
36931;SDS011;22847;42.654;23.370;2023-07-08T03:35:32;15.55;;;11.00;;
36931;SDS011;22847;42.654;23.370;2023-07-08T03:37:57;18.02;;;11.30;;
36931;SDS011;22847;42.654;23.370;2023-07-08T03:40:23;16.80;;;9.60;;
36931;SDS011;22847;42.654;23.370;2023-07-08T03:42:48;17.20;;;9.68;;
36931;SDS011;22847;42.654;23.370;2023-07-08T03:45:14;13.35;;;10.10;;
36931;SDS011;22847;42.654;23.370;2023-07-08T03:47:39;14.23;;;8.55;;
36931;SDS011;22847;42.654;23.370;2023-07-08T03:50:05;12.70;;;10.07;;
36931;SDS011;22847;42.654;23.370;2023-07-08T03:52:31;16.92;;;9.30;;
36931;SDS011;22847;42.654;23.370;2023-07-08T03:54:57;13.32;;;9.07;;
36931;SDS011;22847;42.654;23.370;2023-07-08T03:57:22;12.02;;;9.40;;
36931;SDS011;22847;42.654;23.370;2023-07-08T03:59:48;11.43;;;8.65;;
36931;SDS011;22847;42.654;23.370;2023-07-08T04:02:13;14.73;;;8.73;;
36931;SDS011;22847;42.654;23.370;2023-07-08T04:04:38;12.95;;;11.07;;
36931;SDS011;22847;42.654;23.370;2023-07-08T04:07:04;14.35;;;8.45;;
36931;SDS011;22847;42.654;23.370;2023-07-08T04:09:30;13.00;;;9.45;;
36931;SDS011;22847;42.654;23.370;2023-07-08T04:11:56;13.55;;;9.50;;
36931;SDS011;22847;42.654;23.370;2023-07-08T04:14:22;13.00;;;8.38;;
36931;SDS011;22847;42.654;23.370;2023-07-08T04:16:49;11.80;;;8.38;;
36931;SDS011;22847;42.654;23.370;2023-07-08T04:19:17;13.20;;;8.50;;
36931;SDS011;22847;42.654;23.370;2023-07-08T04:21:43;10.90;;;7.82;;
36931;SDS011;22847;42.654;23.370;2023-07-08T04:24:10;15.10;;;8.57;;
36931;SDS011;22847;42.654;23.370;2023-07-08T04:26:37;10.25;;;8.30;;
36931;SDS011;22847;42.654;23.370;2023-07-08T04:29:05;11.93;;;7.85;;
36931;SDS011;22847;42.654;23.370;2023-07-08T04:31:37;10.43;;;7.70;;
36931;SDS011;22847;42.654;23.370;2023-07-08T04:34:03;14.10;;;8.38;;
36931;SDS011;22847;42.654;23.370;2023-07-08T04:36:28;11.65;;;8.13;;
36931;SDS011;22847;42.654;23.370;2023-07-08T04:38:54;13.23;;;8.70;;
36931;SDS011;22847;42.654;23.370;2023-07-08T04:41:22;11.38;;;8.13;;
36931;SDS011;22847;42.654;23.370;2023-07-08T04:43:50;14.93;;;9.65;;
36931;SDS011;22847;42.654;23.370;2023-07-08T04:48:55;12.60;;;8.57;;
36931;SDS011;22847;42.654;23.370;2023-07-08T04:51:21;17.08;;;8.15;;
36931;SDS011;22847;42.654;23.370;2023-07-08T04:53:46;14.45;;;8.73;;
36931;SDS011;22847;42.654;23.370;2023-07-08T04:56:13;13.98;;;8.50;;
36931;SDS011;22847;42.654;23.370;2023-07-08T04:58:38;12.65;;;9.25;;
36931;SDS011;22847;42.654;23.370;2023-07-08T05:01:04;12.90;;;8.27;;
36931;SDS011;22847;42.654;23.370;2023-07-08T05:03:29;15.65;;;9.05;;
36931;SDS011;22847;42.654;23.370;2023-07-08T05:05:54;14.38;;;8.75;;
36931;SDS011;22847;42.654;23.370;2023-07-08T05:08:20;12.57;;;8.93;;
36931;SDS011;22847;42.654;23.370;2023-07-08T05:10:45;12.85;;;8.63;;
36931;SDS011;22847;42.654;23.370;2023-07-08T05:13:11;11.43;;;8.48;;
36931;SDS011;22847;42.654;23.370;2023-07-08T05:15:36;13.73;;;8.43;;
36931;SDS011;22847;42.654;23.370;2023-07-08T05:18:01;13.68;;;8.38;;
36931;SDS011;22847;42.654;23.370;2023-07-08T05:20:27;10.40;;;8.32;;
36931;SDS011;22847;42.654;23.370;2023-07-08T05:22:53;12.77;;;7.95;;
36931;SDS011;22847;42.654;23.370;2023-07-08T05:25:19;11.57;;;8.43;;
36931;SDS011;22847;42.654;23.370;2023-07-08T05:27:46;10.55;;;8.45;;
36931;SDS011;22847;42.654;23.370;2023-07-08T05:30:13;14.65;;;8.43;;
36931;SDS011;22847;42.654;23.370;2023-07-08T05:32:43;12.88;;;7.60;;
36931;SDS011;22847;42.654;23.370;2023-07-08T05:35:08;16.30;;;9.52;;
36931;SDS011;22847;42.654;23.370;2023-07-08T05:37:34;18.20;;;8.52;;
36931;SDS011;22847;42.654;23.370;2023-07-08T05:39:59;17.90;;;9.80;;
36931;SDS011;22847;42.654;23.370;2023-07-08T05:42:28;16.95;;;8.05;;
36931;SDS011;22847;42.654;23.370;2023-07-08T05:44:53;14.82;;;8.77;;
36931;SDS011;22847;42.654;23.370;2023-07-08T05:47:20;18.05;;;7.88;;
36931;SDS011;22847;42.654;23.370;2023-07-08T05:49:46;16.55;;;8.98;;
36931;SDS011;22847;42.654;23.370;2023-07-08T05:52:12;13.85;;;8.95;;
36931;SDS011;22847;42.654;23.370;2023-07-08T05:54:38;15.13;;;8.95;;
36931;SDS011;22847;42.654;23.370;2023-07-08T05:57:05;9.60;;;6.43;;
36931;SDS011;22847;42.654;23.370;2023-07-08T05:59:31;11.02;;;7.18;;
36931;SDS011;22847;42.654;23.370;2023-07-08T06:01:57;14.70;;;7.85;;
36931;SDS011;22847;42.654;23.370;2023-07-08T06:04:22;13.65;;;6.70;;
36931;SDS011;22847;42.654;23.370;2023-07-08T06:06:48;11.65;;;7.55;;
36931;SDS011;22847;42.654;23.370;2023-07-08T06:09:13;10.63;;;7.45;;
36931;SDS011;22847;42.654;23.370;2023-07-08T06:11:39;14.57;;;7.47;;
36931;SDS011;22847;42.654;23.370;2023-07-08T06:14:04;9.77;;;7.50;;
36931;SDS011;22847;42.654;23.370;2023-07-08T06:16:29;12.50;;;7.53;;
36931;SDS011;22847;42.654;23.370;2023-07-08T06:18:56;10.38;;;7.35;;
36931;SDS011;22847;42.654;23.370;2023-07-08T06:21:22;51.40;;;9.55;;
36931;SDS011;22847;42.654;23.370;2023-07-08T06:23:47;12.52;;;7.80;;
36931;SDS011;22847;42.654;23.370;2023-07-08T06:26:13;16.77;;;7.43;;
36931;SDS011;22847;42.654;23.370;2023-07-08T06:28:38;11.68;;;8.05;;
36931;SDS011;22847;42.654;23.370;2023-07-08T06:31:03;13.13;;;8.68;;
36931;SDS011;22847;42.654;23.370;2023-07-08T06:33:29;13.43;;;8.18;;
36931;SDS011;22847;42.654;23.370;2023-07-08T06:35:54;10.02;;;7.82;;
36931;SDS011;22847;42.654;23.370;2023-07-08T06:38:20;17.02;;;8.90;;
36931;SDS011;22847;42.654;23.370;2023-07-08T06:40:45;11.00;;;7.68;;
36931;SDS011;22847;42.654;23.370;2023-07-08T06:43:10;14.23;;;8.00;;
36931;SDS011;22847;42.654;23.370;2023-07-08T06:45:36;13.00;;;8.10;;
36931;SDS011;22847;42.654;23.370;2023-07-08T06:48:01;13.20;;;8.75;;
36931;SDS011;22847;42.654;23.370;2023-07-08T06:50:27;12.77;;;9.95;;
36931;SDS011;22847;42.654;23.370;2023-07-08T06:52:52;14.60;;;9.07;;
36931;SDS011;22847;42.654;23.370;2023-07-08T06:55:18;16.27;;;7.88;;
36931;SDS011;22847;42.654;23.370;2023-07-08T06:57:43;10.00;;;7.70;;
36931;SDS011;22847;42.654;23.370;2023-07-08T07:00:09;14.07;;;8.00;;
36931;SDS011;22847;42.654;23.370;2023-07-08T07:02:36;11.30;;;7.68;;
36931;SDS011;22847;42.654;23.370;2023-07-08T07:05:02;10.18;;;7.32;;
36931;SDS011;22847;42.654;23.370;2023-07-08T07:07:29;10.45;;;7.30;;
36931;SDS011;22847;42.654;23.370;2023-07-08T07:09:54;12.00;;;7.32;;
36931;SDS011;22847;42.654;23.370;2023-07-08T07:12:20;14.25;;;6.85;;
36931;SDS011;22847;42.654;23.370;2023-07-08T07:14:46;12.30;;;7.35;;
36931;SDS011;22847;42.654;23.370;2023-07-08T07:17:11;12.98;;;6.55;;
36931;SDS011;22847;42.654;23.370;2023-07-08T07:19:37;10.00;;;6.47;;
36931;SDS011;22847;42.654;23.370;2023-07-08T07:22:02;10.02;;;5.95;;
36931;SDS011;22847;42.654;23.370;2023-07-08T07:24:28;9.07;;;6.60;;
36931;SDS011;22847;42.654;23.370;2023-07-08T07:26:53;12.90;;;6.68;;
36931;SDS011;22847;42.654;23.370;2023-07-08T07:29:21;12.27;;;6.90;;
36931;SDS011;22847;42.654;23.370;2023-07-08T07:31:47;10.05;;;7.03;;
36931;SDS011;22847;42.654;23.370;2023-07-08T07:34:13;13.75;;;6.72;;
36931;SDS011;22847;42.654;23.370;2023-07-08T07:36:39;11.23;;;6.75;;
36931;SDS011;22847;42.654;23.370;2023-07-08T07:39:04;10.10;;;6.47;;
36931;SDS011;22847;42.654;23.370;2023-07-08T07:41:30;10.70;;;7.50;;
36931;SDS011;22847;42.654;23.370;2023-07-08T07:43:55;10.40;;;7.32;;
36931;SDS011;22847;42.654;23.370;2023-07-08T07:46:21;12.88;;;8.02;;
36931;SDS011;22847;42.654;23.370;2023-07-08T07:48:46;13.90;;;7.35;;
36931;SDS011;22847;42.654;23.370;2023-07-08T07:51:12;10.02;;;7.35;;
36931;SDS011;22847;42.654;23.370;2023-07-08T07:53:37;7.82;;;6.70;;
36931;SDS011;22847;42.654;23.370;2023-07-08T07:56:03;8.38;;;6.45;;
36931;SDS011;22847;42.654;23.370;2023-07-08T07:58:30;19.45;;;9.40;;
36931;SDS011;22847;42.654;23.370;2023-07-08T08:00:55;7.88;;;6.75;;
36931;SDS011;22847;42.654;23.370;2023-07-08T08:03:21;8.20;;;6.38;;
36931;SDS011;22847;42.654;23.370;2023-07-08T08:05:47;10.85;;;6.22;;
36931;SDS011;22847;42.654;23.370;2023-07-08T08:08:13;11.80;;;6.55;;
36931;SDS011;22847;42.654;23.370;2023-07-08T08:10:38;8.90;;;6.43;;
36931;SDS011;22847;42.654;23.370;2023-07-08T08:13:04;11.68;;;6.90;;
36931;SDS011;22847;42.654;23.370;2023-07-08T08:15:30;11.00;;;6.45;;
36931;SDS011;22847;42.654;23.370;2023-07-08T08:17:55;8.82;;;6.50;;
36931;SDS011;22847;42.654;23.370;2023-07-08T08:20:22;15.70;;;7.97;;
36931;SDS011;22847;42.654;23.370;2023-07-08T08:22:49;12.95;;;6.90;;
36931;SDS011;22847;42.654;23.370;2023-07-08T08:25:15;12.15;;;7.07;;
36931;SDS011;22847;42.654;23.370;2023-07-08T08:27:42;9.25;;;7.07;;
36931;SDS011;22847;42.654;23.370;2023-07-08T08:30:09;12.68;;;6.90;;
36931;SDS011;22847;42.654;23.370;2023-07-08T08:32:35;12.98;;;7.38;;
36931;SDS011;22847;42.654;23.370;2023-07-08T08:35:00;9.35;;;6.80;;
36931;SDS011;22847;42.654;23.370;2023-07-08T08:37:26;11.25;;;6.90;;
36931;SDS011;22847;42.654;23.370;2023-07-08T08:39:51;10.27;;;7.28;;
36931;SDS011;22847;42.654;23.370;2023-07-08T08:42:24;8.85;;;6.55;;
36931;SDS011;22847;42.654;23.370;2023-07-08T08:44:53;9.52;;;6.90;;
36931;SDS011;22847;42.654;23.370;2023-07-08T08:49:57;9.55;;;6.43;;
36931;SDS011;22847;42.654;23.370;2023-07-08T08:52:28;11.77;;;6.80;;
36931;SDS011;22847;42.654;23.370;2023-07-08T08:54:54;11.57;;;7.28;;
36931;SDS011;22847;42.654;23.370;2023-07-08T08:57:32;8.85;;;6.93;;
36931;SDS011;22847;42.654;23.370;2023-07-08T09:00:07;10.95;;;6.75;;
36931;SDS011;22847;42.654;23.370;2023-07-08T09:02:40;15.68;;;7.30;;
36931;SDS011;22847;42.654;23.370;2023-07-08T09:05:13;12.15;;;7.75;;
36931;SDS011;22847;42.654;23.370;2023-07-08T09:07:42;11.73;;;6.90;;
36931;SDS011;22847;42.654;23.370;2023-07-08T09:10:13;7.80;;;6.43;;
36931;SDS011;22847;42.654;23.370;2023-07-08T09:12:46;10.65;;;7.18;;
36931;SDS011;22847;42.654;23.370;2023-07-08T09:15:15;12.10;;;7.93;;
36931;SDS011;22847;42.654;23.370;2023-07-08T09:17:41;20.33;;;8.95;;
36931;SDS011;22847;42.654;23.370;2023-07-08T09:20:17;28.15;;;10.55;;
36931;SDS011;22847;42.654;23.370;2023-07-08T09:28:41;8.60;;;6.47;;
36931;SDS011;22847;42.654;23.370;2023-07-08T09:31:08;8.93;;;6.70;;
36931;SDS011;22847;42.654;23.370;2023-07-08T09:33:52;23.30;;;6.75;;
36931;SDS011;22847;42.654;23.370;2023-07-08T09:36:29;10.32;;;5.88;;
36931;SDS011;22847;42.654;23.370;2023-07-08T09:38:54;8.55;;;6.15;;
36931;SDS011;22847;42.654;23.370;2023-07-08T09:41:28;10.20;;;6.45;;
36931;SDS011;22847;42.654;23.370;2023-07-08T09:46:34;9.93;;;6.43;;
36931;SDS011;22847;42.654;23.370;2023-07-08T09:49:24;10.77;;;6.78;;
36931;SDS011;22847;42.654;23.370;2023-07-08T09:51:50;8.93;;;6.28;;
36931;SDS011;22847;42.654;23.370;2023-07-08T09:54:17;8.57;;;5.93;;
36931;SDS011;22847;42.654;23.370;2023-07-08T09:56:47;7.18;;;6.07;;
36931;SDS011;22847;42.654;23.370;2023-07-08T09:59:19;10.13;;;6.28;;
36931;SDS011;22847;42.654;23.370;2023-07-08T10:01:48;8.48;;;5.25;;
36931;SDS011;22847;42.654;23.370;2023-07-08T10:04:14;13.38;;;5.63;;
36931;SDS011;22847;42.654;23.370;2023-07-08T10:06:42;10.43;;;5.85;;
36931;SDS011;22847;42.654;23.370;2023-07-08T10:09:12;9.43;;;5.88;;
36931;SDS011;22847;42.654;23.370;2023-07-08T10:11:47;8.95;;;6.30;;
36931;SDS011;22847;42.654;23.370;2023-07-08T10:17:09;11.30;;;6.57;;
36931;SDS011;22847;42.654;23.370;2023-07-08T10:19:40;11.70;;;7.50;;
36931;SDS011;22847;42.654;23.370;2023-07-08T10:30:42;11.13;;;6.78;;
36931;SDS011;22847;42.654;23.370;2023-07-08T10:41:55;7.43;;;5.68;;
36931;SDS011;22847;42.654;23.370;2023-07-08T10:44:26;6.07;;;5.05;;
36931;SDS011;22847;42.654;23.370;2023-07-08T10:53:09;8.10;;;4.90;;
36931;SDS011;22847;42.654;23.370;2023-07-08T11:01:17;6.80;;;4.80;;
36931;SDS011;22847;42.654;23.370;2023-07-08T11:09:07;6.40;;;4.82;;
36931;SDS011;22847;42.654;23.370;2023-07-08T11:17:02;6.30;;;5.10;;
36931;SDS011;22847;42.654;23.370;2023-07-08T11:19:42;6.93;;;5.38;;
36931;SDS011;22847;42.654;23.370;2023-07-08T11:22:13;6.88;;;4.72;;
36931;SDS011;22847;42.654;23.370;2023-07-08T11:24:43;5.32;;;4.70;;
36931;SDS011;22847;42.654;23.370;2023-07-08T11:27:33;10.07;;;5.43;;
36931;SDS011;22847;42.654;23.370;2023-07-08T11:32:32;5.70;;;5.00;;
36931;SDS011;22847;42.654;23.370;2023-07-08T11:35:00;5.13;;;4.43;;
36931;SDS011;22847;42.654;23.370;2023-07-08T11:37:29;5.80;;;4.72;;
36931;SDS011;22847;42.654;23.370;2023-07-08T11:40:00;7.47;;;5.13;;
36931;SDS011;22847;42.654;23.370;2023-07-08T11:42:39;7.85;;;5.10;;
36931;SDS011;22847;42.654;23.370;2023-07-08T11:45:08;6.90;;;4.65;;
36931;SDS011;22847;42.654;23.370;2023-07-08T11:47:47;6.75;;;4.60;;
36931;SDS011;22847;42.654;23.370;2023-07-08T11:53:12;7.40;;;4.70;;
36931;SDS011;22847;42.654;23.370;2023-07-08T11:55:56;6.13;;;5.25;;
36931;SDS011;22847;42.654;23.370;2023-07-08T11:58:29;8.93;;;4.88;;
36931;SDS011;22847;42.654;23.370;2023-07-08T12:01:19;6.38;;;5.22;;
36931;SDS011;22847;42.654;23.370;2023-07-08T12:04:00;9.32;;;6.45;;
36931;SDS011;22847;42.654;23.370;2023-07-08T12:06:42;9.30;;;5.90;;
36931;SDS011;22847;42.654;23.370;2023-07-08T12:09:13;6.22;;;4.57;;
36931;SDS011;22847;42.654;23.370;2023-07-08T12:11:59;5.80;;;4.75;;
36931;SDS011;22847;42.654;23.370;2023-07-08T12:14:27;9.70;;;5.05;;
36931;SDS011;22847;42.654;23.370;2023-07-08T12:16:54;5.03;;;4.38;;
36931;SDS011;22847;42.654;23.370;2023-07-08T12:19:20;5.78;;;4.53;;
36931;SDS011;22847;42.654;23.370;2023-07-08T12:21:50;6.40;;;4.50;;
36931;SDS011;22847;42.654;23.370;2023-07-08T12:24:16;7.60;;;5.15;;
36931;SDS011;22847;42.654;23.370;2023-07-08T12:26:43;7.47;;;4.63;;
36931;SDS011;22847;42.654;23.370;2023-07-08T12:29:12;7.63;;;5.75;;
36931;SDS011;22847;42.654;23.370;2023-07-08T12:31:41;6.13;;;4.60;;
36931;SDS011;22847;42.654;23.370;2023-07-08T12:34:14;7.80;;;4.70;;
36931;SDS011;22847;42.654;23.370;2023-07-08T12:36:42;5.18;;;4.18;;
36931;SDS011;22847;42.654;23.370;2023-07-08T12:39:11;5.72;;;4.85;;
36931;SDS011;22847;42.654;23.370;2023-07-08T12:41:40;9.27;;;4.22;;
36931;SDS011;22847;42.654;23.370;2023-07-08T12:44:08;6.47;;;4.40;;
36931;SDS011;22847;42.654;23.370;2023-07-08T12:46:48;6.68;;;4.35;;
36931;SDS011;22847;42.654;23.370;2023-07-08T12:49:17;5.20;;;4.20;;
36931;SDS011;22847;42.654;23.370;2023-07-08T12:51:45;7.50;;;5.57;;
36931;SDS011;22847;42.654;23.370;2023-07-08T12:54:11;6.25;;;3.63;;
36931;SDS011;22847;42.654;23.370;2023-07-08T12:56:38;6.65;;;4.55;;
36931;SDS011;22847;42.654;23.370;2023-07-08T12:59:07;6.32;;;4.22;;
36931;SDS011;22847;42.654;23.370;2023-07-08T13:01:34;7.32;;;4.55;;
36931;SDS011;22847;42.654;23.370;2023-07-08T13:04:09;7.63;;;4.30;;
36931;SDS011;22847;42.654;23.370;2023-07-08T13:06:36;6.72;;;4.20;;
36931;SDS011;22847;42.654;23.370;2023-07-08T13:09:49;5.63;;;4.07;;
36931;SDS011;22847;42.654;23.370;2023-07-08T13:12:03;5.75;;;4.30;;
36931;SDS011;22847;42.654;23.370;2023-07-08T13:17:01;6.00;;;4.20;;
36931;SDS011;22847;42.654;23.370;2023-07-08T13:19:26;4.68;;;3.67;;
36931;SDS011;22847;42.654;23.370;2023-07-08T13:21:52;9.55;;;3.88;;
36931;SDS011;22847;42.654;23.370;2023-07-08T13:24:18;5.57;;;4.13;;
36931;SDS011;22847;42.654;23.370;2023-07-08T13:26:47;6.35;;;3.80;;
36931;SDS011;22847;42.654;23.370;2023-07-08T13:29:15;9.68;;;4.03;;
36931;SDS011;22847;42.654;23.370;2023-07-08T13:31:46;6.15;;;3.63;;
36931;SDS011;22847;42.654;23.370;2023-07-08T13:34:19;10.00;;;3.53;;
36931;SDS011;22847;42.654;23.370;2023-07-08T13:36:46;8.52;;;3.58;;
36931;SDS011;22847;42.654;23.370;2023-07-08T13:39:17;8.85;;;3.63;;
36931;SDS011;22847;42.654;23.370;2023-07-08T13:41:47;6.35;;;3.95;;
36931;SDS011;22847;42.654;23.370;2023-07-08T13:44:13;5.90;;;3.38;;
36931;SDS011;22847;42.654;23.370;2023-07-08T13:46:39;5.43;;;3.38;;
36931;SDS011;22847;42.654;23.370;2023-07-08T13:52:04;5.80;;;3.83;;
36931;SDS011;22847;42.654;23.370;2023-07-08T13:54:47;6.30;;;3.60;;
36931;SDS011;22847;42.654;23.370;2023-07-08T13:57:28;5.68;;;3.72;;
36931;SDS011;22847;42.654;23.370;2023-07-08T13:59:59;6.57;;;4.00;;
36931;SDS011;22847;42.654;23.370;2023-07-08T14:02:26;6.35;;;3.70;;
36931;SDS011;22847;42.654;23.370;2023-07-08T14:04:54;4.88;;;3.95;;
36931;SDS011;22847;42.654;23.370;2023-07-08T14:07:26;8.60;;;4.05;;
36931;SDS011;22847;42.654;23.370;2023-07-08T14:09:53;4.45;;;3.83;;
36931;SDS011;22847;42.654;23.370;2023-07-08T14:12:19;5.63;;;3.92;;
36931;SDS011;22847;42.654;23.370;2023-07-08T14:14:45;6.97;;;3.60;;
36931;SDS011;22847;42.654;23.370;2023-07-08T14:17:12;9.25;;;3.70;;
36931;SDS011;22847;42.654;23.370;2023-07-08T14:19:41;7.72;;;3.65;;
36931;SDS011;22847;42.654;23.370;2023-07-08T14:22:19;7.65;;;4.10;;
36931;SDS011;22847;42.654;23.370;2023-07-08T14:24:52;5.80;;;4.00;;
36931;SDS011;22847;42.654;23.370;2023-07-08T14:27:18;9.98;;;3.58;;
36931;SDS011;22847;42.654;23.370;2023-07-08T14:29:46;7.15;;;3.95;;
36931;SDS011;22847;42.654;23.370;2023-07-08T14:32:19;4.60;;;3.65;;
36931;SDS011;22847;42.654;23.370;2023-07-08T14:34:52;7.47;;;4.15;;
36931;SDS011;22847;42.654;23.370;2023-07-08T14:37:20;7.07;;;4.25;;
36931;SDS011;22847;42.654;23.370;2023-07-08T14:39:47;7.45;;;4.07;;
36931;SDS011;22847;42.654;23.370;2023-07-08T14:42:14;7.25;;;4.07;;
36931;SDS011;22847;42.654;23.370;2023-07-08T14:44:42;7.60;;;3.95;;
36931;SDS011;22847;42.654;23.370;2023-07-08T14:47:10;7.05;;;3.75;;
36931;SDS011;22847;42.654;23.370;2023-07-08T14:49:38;5.25;;;3.97;;
36931;SDS011;22847;42.654;23.370;2023-07-08T14:52:04;5.60;;;3.80;;
36931;SDS011;22847;42.654;23.370;2023-07-08T14:54:29;8.48;;;4.20;;
36931;SDS011;22847;42.654;23.370;2023-07-08T14:56:55;11.52;;;4.00;;
36931;SDS011;22847;42.654;23.370;2023-07-08T14:59:22;4.43;;;3.70;;
36931;SDS011;22847;42.654;23.370;2023-07-08T15:01:51;5.45;;;3.75;;
36931;SDS011;22847;42.654;23.370;2023-07-08T15:04:18;7.85;;;3.65;;
36931;SDS011;22847;42.654;23.370;2023-07-08T15:06:44;7.70;;;3.30;;
36931;SDS011;22847;42.654;23.370;2023-07-08T15:09:11;6.93;;;3.80;;
36931;SDS011;22847;42.654;23.370;2023-07-08T15:11:38;5.70;;;3.22;;
36931;SDS011;22847;42.654;23.370;2023-07-08T15:14:09;10.10;;;4.07;;
36931;SDS011;22847;42.654;23.370;2023-07-08T15:16:49;6.47;;;3.77;;
36931;SDS011;22847;42.654;23.370;2023-07-08T15:19:16;9.27;;;3.80;;
36931;SDS011;22847;42.654;23.370;2023-07-08T15:21:42;8.88;;;3.65;;
36931;SDS011;22847;42.654;23.370;2023-07-08T15:24:09;9.00;;;5.50;;
36931;SDS011;22847;42.654;23.370;2023-07-08T15:26:37;8.20;;;4.05;;
36931;SDS011;22847;42.654;23.370;2023-07-08T15:29:03;6.40;;;4.30;;
36931;SDS011;22847;42.654;23.370;2023-07-08T15:31:29;5.45;;;4.30;;
36931;SDS011;22847;42.654;23.370;2023-07-08T15:33:57;6.43;;;3.55;;
36931;SDS011;22847;42.654;23.370;2023-07-08T15:36:23;5.40;;;3.65;;
36931;SDS011;22847;42.654;23.370;2023-07-08T15:38:48;7.20;;;4.60;;
36931;SDS011;22847;42.654;23.370;2023-07-08T15:43:47;6.63;;;4.03;;